sensor_id;sensor_type;location;lat;lon;timestamp;P1;durP1;ratioP1;P2;durP2;ratioP2
73136;SDS011;62977;45.636;11.750;2023-02-10T00:01:06;49.38;;;22.20;;
73136;SDS011;62977;45.636;11.750;2023-02-10T00:03:34;48.97;;;23.02;;
73136;SDS011;62977;45.636;11.750;2023-02-10T00:06:01;38.27;;;20.53;;
73136;SDS011;62977;45.636;11.750;2023-02-10T00:08:28;45.35;;;21.13;;
73136;SDS011;62977;45.636;11.750;2023-02-10T00:11:01;47.45;;;20.70;;
73136;SDS011;62977;45.636;11.750;2023-02-10T00:13:29;44.95;;;21.15;;
73136;SDS011;62977;45.636;11.750;2023-02-10T00:15:57;40.80;;;19.38;;
73136;SDS011;62977;45.636;11.750;2023-02-10T00:18:23;55.27;;;23.97;;
73136;SDS011;62977;45.636;11.750;2023-02-10T00:20:49;48.28;;;21.50;;
73136;SDS011;62977;45.636;11.750;2023-02-10T00:23:15;48.50;;;21.67;;
73136;SDS011;62977;45.636;11.750;2023-02-10T00:25:40;45.80;;;21.40;;
73136;SDS011;62977;45.636;11.750;2023-02-10T00:28:06;48.25;;;23.67;;
73136;SDS011;62977;45.636;11.750;2023-02-10T00:30:32;45.83;;;22.00;;
73136;SDS011;62977;45.636;11.750;2023-02-10T00:32:58;46.65;;;22.30;;
73136;SDS011;62977;45.636;11.750;2023-02-10T00:35:23;47.92;;;21.23;;
73136;SDS011;62977;45.636;11.750;2023-02-10T00:37:49;49.67;;;22.20;;
73136;SDS011;62977;45.636;11.750;2023-02-10T00:40:15;43.73;;;22.00;;
73136;SDS011;62977;45.636;11.750;2023-02-10T00:42:41;47.53;;;22.40;;
73136;SDS011;62977;45.636;11.750;2023-02-10T00:45:07;52.22;;;22.67;;
73136;SDS011;62977;45.636;11.750;2023-02-10T00:47:33;52.85;;;23.27;;
73136;SDS011;62977;45.636;11.750;2023-02-10T00:49:59;56.07;;;23.30;;
73136;SDS011;62977;45.636;11.750;2023-02-10T00:52:25;49.25;;;20.90;;
73136;SDS011;62977;45.636;11.750;2023-02-10T00:54:51;47.03;;;20.47;;
73136;SDS011;62977;45.636;11.750;2023-02-10T00:57:16;51.23;;;22.37;;
73136;SDS011;62977;45.636;11.750;2023-02-10T00:59:42;53.20;;;22.33;;
73136;SDS011;62977;45.636;11.750;2023-02-10T01:02:08;45.07;;;19.53;;
73136;SDS011;62977;45.636;11.750;2023-02-10T01:04:34;49.13;;;20.90;;
73136;SDS011;62977;45.636;11.750;2023-02-10T01:07:00;44.78;;;21.13;;
73136;SDS011;62977;45.636;11.750;2023-02-10T01:09:26;46.17;;;20.43;;
73136;SDS011;62977;45.636;11.750;2023-02-10T01:11:52;41.38;;;20.08;;
73136;SDS011;62977;45.636;11.750;2023-02-10T01:14:17;51.70;;;20.77;;
73136;SDS011;62977;45.636;11.750;2023-02-10T01:16:43;45.83;;;20.85;;
73136;SDS011;62977;45.636;11.750;2023-02-10T01:19:09;43.83;;;19.43;;
73136;SDS011;62977;45.636;11.750;2023-02-10T01:21:35;38.17;;;19.50;;
73136;SDS011;62977;45.636;11.750;2023-02-10T01:24:02;48.25;;;22.17;;
73136;SDS011;62977;45.636;11.750;2023-02-10T01:26:28;44.53;;;19.63;;
73136;SDS011;62977;45.636;11.750;2023-02-10T01:28:54;39.22;;;19.35;;
73136;SDS011;62977;45.636;11.750;2023-02-10T01:31:20;40.07;;;18.17;;
73136;SDS011;62977;45.636;11.750;2023-02-10T01:33:46;38.08;;;18.35;;
73136;SDS011;62977;45.636;11.750;2023-02-10T01:36:16;41.90;;;19.02;;
73136;SDS011;62977;45.636;11.750;2023-02-10T01:38:43;48.83;;;19.60;;
73136;SDS011;62977;45.636;11.750;2023-02-10T01:41:10;68.85;;;25.20;;
73136;SDS011;62977;45.636;11.750;2023-02-10T01:46:20;41.90;;;19.30;;
73136;SDS011;62977;45.636;11.750;2023-02-10T01:48:46;43.22;;;19.45;;
73136;SDS011;62977;45.636;11.750;2023-02-10T01:51:12;43.97;;;19.93;;
73136;SDS011;62977;45.636;11.750;2023-02-10T01:53:41;38.67;;;18.55;;
73136;SDS011;62977;45.636;11.750;2023-02-10T01:56:08;44.17;;;20.17;;
73136;SDS011;62977;45.636;11.750;2023-02-10T01:58:36;40.38;;;18.75;;
73136;SDS011;62977;45.636;11.750;2023-02-10T02:01:02;41.97;;;19.65;;
73136;SDS011;62977;45.636;11.750;2023-02-10T02:03:28;50.57;;;23.27;;
73136;SDS011;62977;45.636;11.750;2023-02-10T02:05:54;43.35;;;19.73;;
73136;SDS011;62977;45.636;11.750;2023-02-10T02:08:23;43.40;;;18.93;;
73136;SDS011;62977;45.636;11.750;2023-02-10T02:27:47;131.93;;;40.85;;
73136;SDS011;62977;45.636;11.750;2023-02-10T02:33:33;144.23;;;44.03;;
73136;SDS011;62977;45.636;11.750;2023-02-10T02:36:12;142.07;;;42.13;;
73136;SDS011;62977;45.636;11.750;2023-02-10T02:38:43;115.97;;;37.72;;
73136;SDS011;62977;45.636;11.750;2023-02-10T02:41:09;72.80;;;28.10;;
73136;SDS011;62977;45.636;11.750;2023-02-10T02:43:36;60.67;;;22.40;;
73136;SDS011;62977;45.636;11.750;2023-02-10T02:48:39;47.80;;;20.60;;
73136;SDS011;62977;45.636;11.750;2023-02-10T02:53:46;47.03;;;20.55;;
73136;SDS011;62977;45.636;11.750;2023-02-10T02:56:20;49.40;;;20.47;;
73136;SDS011;62977;45.636;11.750;2023-02-10T03:01:22;44.05;;;18.08;;
73136;SDS011;62977;45.636;11.750;2023-02-10T03:03:54;42.35;;;18.77;;
73136;SDS011;62977;45.636;11.750;2023-02-10T03:06:22;39.03;;;18.42;;
73136;SDS011;62977;45.636;11.750;2023-02-10T03:08:48;38.77;;;17.80;;
73136;SDS011;62977;45.636;11.750;2023-02-10T03:11:14;45.92;;;19.75;;
73136;SDS011;62977;45.636;11.750;2023-02-10T03:13:40;38.47;;;17.17;;
73136;SDS011;62977;45.636;11.750;2023-02-10T03:16:06;42.20;;;18.30;;
73136;SDS011;62977;45.636;11.750;2023-02-10T03:18:32;41.08;;;18.30;;
73136;SDS011;62977;45.636;11.750;2023-02-10T03:20:58;42.73;;;19.17;;
73136;SDS011;62977;45.636;11.750;2023-02-10T03:23:23;40.77;;;18.40;;
73136;SDS011;62977;45.636;11.750;2023-02-10T03:25:49;38.70;;;18.47;;
73136;SDS011;62977;45.636;11.750;2023-02-10T03:28:14;41.53;;;17.70;;
73136;SDS011;62977;45.636;11.750;2023-02-10T03:30:40;36.20;;;17.67;;
73136;SDS011;62977;45.636;11.750;2023-02-10T03:33:12;44.10;;;20.45;;
73136;SDS011;62977;45.636;11.750;2023-02-10T03:35:39;41.67;;;17.92;;
73136;SDS011;62977;45.636;11.750;2023-02-10T03:38:06;42.40;;;18.60;;
73136;SDS011;62977;45.636;11.750;2023-02-10T03:40:32;40.33;;;19.13;;
73136;SDS011;62977;45.636;11.750;2023-02-10T03:42:57;45.65;;;18.90;;
73136;SDS011;62977;45.636;11.750;2023-02-10T03:45:23;44.60;;;18.43;;
73136;SDS011;62977;45.636;11.750;2023-02-10T03:47:49;46.40;;;19.93;;
73136;SDS011;62977;45.636;11.750;2023-02-10T03:50:14;43.10;;;18.85;;
73136;SDS011;62977;45.636;11.750;2023-02-10T03:52:40;39.23;;;17.97;;
73136;SDS011;62977;45.636;11.750;2023-02-10T03:55:05;38.63;;;18.60;;
73136;SDS011;62977;45.636;11.750;2023-02-10T03:57:32;41.83;;;20.27;;
73136;SDS011;62977;45.636;11.750;2023-02-10T03:59:57;43.67;;;19.07;;
73136;SDS011;62977;45.636;11.750;2023-02-10T04:02:23;36.97;;;18.53;;
73136;SDS011;62977;45.636;11.750;2023-02-10T04:04:49;38.03;;;18.20;;
73136;SDS011;62977;45.636;11.750;2023-02-10T04:07:14;42.10;;;19.03;;
73136;SDS011;62977;45.636;11.750;2023-02-10T04:09:40;41.67;;;17.48;;
73136;SDS011;62977;45.636;11.750;2023-02-10T04:12:05;46.93;;;19.33;;
73136;SDS011;62977;45.636;11.750;2023-02-10T04:14:31;43.45;;;19.83;;
73136;SDS011;62977;45.636;11.750;2023-02-10T04:16:57;41.43;;;18.93;;
73136;SDS011;62977;45.636;11.750;2023-02-10T04:19:23;44.38;;;19.75;;
73136;SDS011;62977;45.636;11.750;2023-02-10T04:21:49;41.08;;;17.75;;
73136;SDS011;62977;45.636;11.750;2023-02-10T04:24:15;39.87;;;17.57;;
73136;SDS011;62977;45.636;11.750;2023-02-10T04:26:41;42.05;;;18.90;;
73136;SDS011;62977;45.636;11.750;2023-02-10T04:29:06;35.73;;;17.73;;
73136;SDS011;62977;45.636;11.750;2023-02-10T04:31:32;45.88;;;20.60;;
73136;SDS011;62977;45.636;11.750;2023-02-10T04:33:58;44.23;;;19.40;;
73136;SDS011;62977;45.636;11.750;2023-02-10T04:36:23;38.33;;;18.77;;
73136;SDS011;62977;45.636;11.750;2023-02-10T04:38:49;36.13;;;17.50;;
73136;SDS011;62977;45.636;11.750;2023-02-10T04:41:15;37.27;;;17.60;;
73136;SDS011;62977;45.636;11.750;2023-02-10T04:43:40;38.38;;;17.27;;
73136;SDS011;62977;45.636;11.750;2023-02-10T04:46:06;39.37;;;17.37;;
73136;SDS011;62977;45.636;11.750;2023-02-10T04:48:32;43.75;;;20.52;;
73136;SDS011;62977;45.636;11.750;2023-02-10T04:50:59;46.25;;;22.77;;
73136;SDS011;62977;45.636;11.750;2023-02-10T04:53:30;48.58;;;21.83;;
73136;SDS011;62977;45.636;11.750;2023-02-10T04:55:55;40.17;;;18.60;;
73136;SDS011;62977;45.636;11.750;2023-02-10T04:58:21;40.00;;;17.87;;
73136;SDS011;62977;45.636;11.750;2023-02-10T05:00:47;40.97;;;19.15;;
73136;SDS011;62977;45.636;11.750;2023-02-10T05:03:12;43.25;;;19.77;;
73136;SDS011;62977;45.636;11.750;2023-02-10T05:05:38;46.77;;;19.13;;
73136;SDS011;62977;45.636;11.750;2023-02-10T05:08:03;40.07;;;17.93;;
73136;SDS011;62977;45.636;11.750;2023-02-10T05:10:29;42.72;;;18.88;;
73136;SDS011;62977;45.636;11.750;2023-02-10T05:12:55;42.90;;;17.97;;
73136;SDS011;62977;45.636;11.750;2023-02-10T05:15:20;42.08;;;18.77;;
73136;SDS011;62977;45.636;11.750;2023-02-10T05:17:46;42.17;;;18.83;;
73136;SDS011;62977;45.636;11.750;2023-02-10T05:20:12;39.55;;;19.17;;
73136;SDS011;62977;45.636;11.750;2023-02-10T05:22:38;39.17;;;18.53;;
73136;SDS011;62977;45.636;11.750;2023-02-10T05:25:04;42.42;;;17.05;;
73136;SDS011;62977;45.636;11.750;2023-02-10T05:27:30;37.80;;;17.63;;
73136;SDS011;62977;45.636;11.750;2023-02-10T05:29:56;43.47;;;18.33;;
73136;SDS011;62977;45.636;11.750;2023-02-10T05:32:22;39.85;;;18.20;;
73136;SDS011;62977;45.636;11.750;2023-02-10T05:34:47;42.20;;;18.87;;
73136;SDS011;62977;45.636;11.750;2023-02-10T05:37:13;49.17;;;18.93;;
73136;SDS011;62977;45.636;11.750;2023-02-10T05:39:39;44.60;;;17.80;;
73136;SDS011;62977;45.636;11.750;2023-02-10T05:42:05;54.13;;;21.50;;
73136;SDS011;62977;45.636;11.750;2023-02-10T05:44:30;59.73;;;22.60;;
73136;SDS011;62977;45.636;11.750;2023-02-10T05:46:57;57.03;;;23.48;;
73136;SDS011;62977;45.636;11.750;2023-02-10T05:49:23;42.88;;;20.27;;
73136;SDS011;62977;45.636;11.750;2023-02-10T05:51:49;39.75;;;18.92;;
73136;SDS011;62977;45.636;11.750;2023-02-10T05:54:15;39.53;;;18.77;;
73136;SDS011;62977;45.636;11.750;2023-02-10T05:56:40;40.35;;;17.55;;
73136;SDS011;62977;45.636;11.750;2023-02-10T05:59:06;38.93;;;17.03;;
73136;SDS011;62977;45.636;11.750;2023-02-10T06:01:32;36.47;;;15.00;;
73136;SDS011;62977;45.636;11.750;2023-02-10T06:03:58;36.83;;;15.65;;
73136;SDS011;62977;45.636;11.750;2023-02-10T06:06:23;42.07;;;17.37;;
73136;SDS011;62977;45.636;11.750;2023-02-10T06:08:49;42.88;;;15.82;;
73136;SDS011;62977;45.636;11.750;2023-02-10T06:11:15;36.37;;;15.40;;
73136;SDS011;62977;45.636;11.750;2023-02-10T06:13:41;37.50;;;15.70;;
73136;SDS011;62977;45.636;11.750;2023-02-10T06:16:07;39.93;;;16.50;;
73136;SDS011;62977;45.636;11.750;2023-02-10T06:18:33;46.80;;;19.38;;
73136;SDS011;62977;45.636;11.750;2023-02-10T06:20:59;34.65;;;16.27;;
73136;SDS011;62977;45.636;11.750;2023-02-10T06:23:25;30.87;;;14.27;;
73136;SDS011;62977;45.636;11.750;2023-02-10T06:25:51;34.58;;;15.15;;
73136;SDS011;62977;45.636;11.750;2023-02-10T06:28:22;38.63;;;15.25;;
73136;SDS011;62977;45.636;11.750;2023-02-10T06:30:49;42.08;;;16.83;;
73136;SDS011;62977;45.636;11.750;2023-02-10T06:33:15;35.23;;;15.03;;
73136;SDS011;62977;45.636;11.750;2023-02-10T06:35:41;40.13;;;15.60;;
73136;SDS011;62977;45.636;11.750;2023-02-10T06:38:07;44.45;;;17.45;;
73136;SDS011;62977;45.636;11.750;2023-02-10T06:40:33;40.87;;;16.90;;
73136;SDS011;62977;45.636;11.750;2023-02-10T06:42:59;43.85;;;18.08;;
73136;SDS011;62977;45.636;11.750;2023-02-10T06:45:26;41.63;;;18.00;;
73136;SDS011;62977;45.636;11.750;2023-02-10T06:47:52;41.30;;;17.90;;
73136;SDS011;62977;45.636;11.750;2023-02-10T06:50:18;43.72;;;19.35;;
73136;SDS011;62977;45.636;11.750;2023-02-10T06:52:45;36.72;;;18.38;;
73136;SDS011;62977;45.636;11.750;2023-02-10T06:55:11;50.03;;;19.03;;
73136;SDS011;62977;45.636;11.750;2023-02-10T06:57:37;58.70;;;24.48;;
73136;SDS011;62977;45.636;11.750;2023-02-10T07:00:07;49.13;;;22.02;;
73136;SDS011;62977;45.636;11.750;2023-02-10T07:02:35;44.15;;;19.13;;
73136;SDS011;62977;45.636;11.750;2023-02-10T07:05:01;45.83;;;19.80;;
73136;SDS011;62977;45.636;11.750;2023-02-10T07:07:29;48.97;;;21.80;;
73136;SDS011;62977;45.636;11.750;2023-02-10T07:09:55;48.58;;;20.55;;
73136;SDS011;62977;45.636;11.750;2023-02-10T07:12:21;60.75;;;27.25;;
73136;SDS011;62977;45.636;11.750;2023-02-10T07:14:47;58.03;;;24.93;;
73136;SDS011;62977;45.636;11.750;2023-02-10T07:17:13;53.70;;;24.48;;
73136;SDS011;62977;45.636;11.750;2023-02-10T07:19:38;57.83;;;25.90;;
73136;SDS011;62977;45.636;11.750;2023-02-10T07:22:04;57.95;;;25.95;;
73136;SDS011;62977;45.636;11.750;2023-02-10T07:24:32;61.20;;;29.25;;
73136;SDS011;62977;45.636;11.750;2023-02-10T07:26:58;53.20;;;25.10;;
73136;SDS011;62977;45.636;11.750;2023-02-10T07:29:24;51.60;;;26.70;;
73136;SDS011;62977;45.636;11.750;2023-02-10T07:31:49;63.33;;;27.27;;
73136;SDS011;62977;45.636;11.750;2023-02-10T07:34:15;70.80;;;29.93;;
73136;SDS011;62977;45.636;11.750;2023-02-10T07:36:44;60.38;;;26.65;;
73136;SDS011;62977;45.636;11.750;2023-02-10T07:39:10;56.10;;;30.43;;
73136;SDS011;62977;45.636;11.750;2023-02-10T07:41:36;55.23;;;27.57;;
73136;SDS011;62977;45.636;11.750;2023-02-10T07:44:01;66.72;;;30.20;;
73136;SDS011;62977;45.636;11.750;2023-02-10T07:46:27;65.23;;;30.17;;
73136;SDS011;62977;45.636;11.750;2023-02-10T07:48:53;54.78;;;24.80;;
73136;SDS011;62977;45.636;11.750;2023-02-10T07:51:19;44.00;;;20.40;;
73136;SDS011;62977;45.636;11.750;2023-02-10T07:53:44;45.28;;;22.05;;
73136;SDS011;62977;45.636;11.750;2023-02-10T07:56:10;49.53;;;21.63;;
73136;SDS011;62977;45.636;11.750;2023-02-10T07:58:36;48.93;;;22.07;;
73136;SDS011;62977;45.636;11.750;2023-02-10T08:01:06;47.72;;;22.52;;
73136;SDS011;62977;45.636;11.750;2023-02-10T08:03:33;51.05;;;24.42;;
73136;SDS011;62977;45.636;11.750;2023-02-10T08:05:58;42.67;;;21.40;;
73136;SDS011;62977;45.636;11.750;2023-02-10T08:08:24;51.78;;;22.73;;
73136;SDS011;62977;45.636;11.750;2023-02-10T08:10:49;43.40;;;20.70;;
73136;SDS011;62977;45.636;11.750;2023-02-10T08:13:15;49.93;;;23.67;;
73136;SDS011;62977;45.636;11.750;2023-02-10T08:15:41;41.40;;;20.63;;
73136;SDS011;62977;45.636;11.750;2023-02-10T08:18:06;51.37;;;22.40;;
73136;SDS011;62977;45.636;11.750;2023-02-10T08:20:32;45.90;;;22.23;;
73136;SDS011;62977;45.636;11.750;2023-02-10T08:22:58;44.87;;;22.33;;
73136;SDS011;62977;45.636;11.750;2023-02-10T08:25:24;45.35;;;21.23;;
73136;SDS011;62977;45.636;11.750;2023-02-10T08:27:51;37.13;;;19.50;;
73136;SDS011;62977;45.636;11.750;2023-02-10T08:30:16;40.27;;;17.97;;
73136;SDS011;62977;45.636;11.750;2023-02-10T08:32:43;33.72;;;15.10;;
73136;SDS011;62977;45.636;11.750;2023-02-10T08:35:09;37.28;;;15.77;;
73136;SDS011;62977;45.636;11.750;2023-02-10T08:37:35;35.70;;;15.43;;
73136;SDS011;62977;45.636;11.750;2023-02-10T08:40:01;30.65;;;13.75;;
73136;SDS011;62977;45.636;11.750;2023-02-10T08:42:29;31.40;;;14.02;;
73136;SDS011;62977;45.636;11.750;2023-02-10T08:44:54;43.37;;;16.13;;
73136;SDS011;62977;45.636;11.750;2023-02-10T08:47:20;34.60;;;15.07;;
73136;SDS011;62977;45.636;11.750;2023-02-10T08:49:45;32.20;;;13.07;;
73136;SDS011;62977;45.636;11.750;2023-02-10T08:52:11;38.88;;;15.27;;
73136;SDS011;62977;45.636;11.750;2023-02-10T08:54:37;35.33;;;15.47;;
73136;SDS011;62977;45.636;11.750;2023-02-10T08:57:02;33.85;;;16.63;;
73136;SDS011;62977;45.636;11.750;2023-02-10T08:59:28;32.90;;;15.87;;
73136;SDS011;62977;45.636;11.750;2023-02-10T09:01:54;29.92;;;15.43;;
73136;SDS011;62977;45.636;11.750;2023-02-10T09:04:19;30.40;;;13.73;;
73136;SDS011;62977;45.636;11.750;2023-02-10T09:06:46;28.73;;;13.48;;
73136;SDS011;62977;45.636;11.750;2023-02-10T09:09:13;30.15;;;14.07;;
73136;SDS011;62977;45.636;11.750;2023-02-10T09:11:41;24.47;;;12.27;;
73136;SDS011;62977;45.636;11.750;2023-02-10T09:14:08;27.13;;;11.75;;
73136;SDS011;62977;45.636;11.750;2023-02-10T09:16:34;22.88;;;11.98;;
73136;SDS011;62977;45.636;11.750;2023-02-10T09:19:00;24.30;;;11.73;;
73136;SDS011;62977;45.636;11.750;2023-02-10T09:21:26;23.27;;;11.83;;
73136;SDS011;62977;45.636;11.750;2023-02-10T09:23:52;24.83;;;13.57;;
73136;SDS011;62977;45.636;11.750;2023-02-10T09:26:18;28.88;;;12.75;;
73136;SDS011;62977;45.636;11.750;2023-02-10T09:28:43;26.30;;;12.20;;
73136;SDS011;62977;45.636;11.750;2023-02-10T09:31:11;24.33;;;11.70;;
73136;SDS011;62977;45.636;11.750;2023-02-10T09:33:38;24.25;;;12.35;;
73136;SDS011;62977;45.636;11.750;2023-02-10T09:36:04;26.33;;;11.97;;
73136;SDS011;62977;45.636;11.750;2023-02-10T09:38:31;23.73;;;11.48;;
73136;SDS011;62977;45.636;11.750;2023-02-10T09:44:01;20.98;;;10.70;;
73136;SDS011;62977;45.636;11.750;2023-02-10T09:53:04;22.38;;;10.55;;
73136;SDS011;62977;45.636;11.750;2023-02-10T10:00:57;26.47;;;9.83;;
73136;SDS011;62977;45.636;11.750;2023-02-10T10:03:38;22.80;;;8.82;;
73136;SDS011;62977;45.636;11.750;2023-02-10T10:14:19;29.23;;;12.50;;
73136;SDS011;62977;45.636;11.750;2023-02-10T10:17:06;29.00;;;12.57;;
73136;SDS011;62977;45.636;11.750;2023-02-10T10:25:42;22.15;;;10.40;;
73136;SDS011;62977;45.636;11.750;2023-02-10T10:30:51;25.17;;;9.57;;
73136;SDS011;62977;45.636;11.750;2023-02-10T10:33:31;22.80;;;10.73;;
73136;SDS011;62977;45.636;11.750;2023-02-10T10:36:37;24.50;;;12.25;;
73136;SDS011;62977;45.636;11.750;2023-02-10T10:39:21;25.90;;;11.48;;
73136;SDS011;62977;45.636;11.750;2023-02-10T10:41:48;21.30;;;10.60;;
73136;SDS011;62977;45.636;11.750;2023-02-10T10:44:15;24.50;;;11.13;;
73136;SDS011;62977;45.636;11.750;2023-02-10T10:49:10;23.38;;;9.55;;
73136;SDS011;62977;45.636;11.750;2023-02-10T10:51:36;22.33;;;10.40;;
73136;SDS011;62977;45.636;11.750;2023-02-10T10:54:04;20.63;;;9.87;;
73136;SDS011;62977;45.636;11.750;2023-02-10T10:56:39;21.95;;;10.00;;
73136;SDS011;62977;45.636;11.750;2023-02-10T11:01:52;20.90;;;8.50;;
73136;SDS011;62977;45.636;11.750;2023-02-10T11:04:21;22.08;;;9.95;;
73136;SDS011;62977;45.636;11.750;2023-02-10T11:06:50;18.93;;;10.20;;
73136;SDS011;62977;45.636;11.750;2023-02-10T11:09:26;18.35;;;9.82;;
73136;SDS011;62977;45.636;11.750;2023-02-10T11:12:02;20.08;;;10.85;;
73136;SDS011;62977;45.636;11.750;2023-02-10T11:14:41;22.40;;;12.40;;
73136;SDS011;62977;45.636;11.750;2023-02-10T11:22:38;26.73;;;13.52;;
73136;SDS011;62977;45.636;11.750;2023-02-10T11:27:49;27.50;;;14.25;;
73136;SDS011;62977;45.636;11.750;2023-02-10T11:30:32;26.33;;;14.23;;
73136;SDS011;62977;45.636;11.750;2023-02-10T11:33:00;27.00;;;13.80;;
73136;SDS011;62977;45.636;11.750;2023-02-10T11:35:28;22.33;;;12.07;;
73136;SDS011;62977;45.636;11.750;2023-02-10T11:38:00;20.67;;;12.50;;
73136;SDS011;62977;45.636;11.750;2023-02-10T11:40:30;24.40;;;11.63;;
73136;SDS011;62977;45.636;11.750;2023-02-10T11:43:13;21.10;;;10.57;;
73136;SDS011;62977;45.636;11.750;2023-02-10T11:45:50;17.37;;;10.00;;
73136;SDS011;62977;45.636;11.750;2023-02-10T11:48:21;20.52;;;11.50;;
73136;SDS011;62977;45.636;11.750;2023-02-10T11:50:48;20.30;;;10.07;;
73136;SDS011;62977;45.636;11.750;2023-02-10T11:53:27;20.08;;;10.57;;
73136;SDS011;62977;45.636;11.750;2023-02-10T11:56:01;18.15;;;11.13;;
73136;SDS011;62977;45.636;11.750;2023-02-10T12:17:42;20.48;;;10.95;;
73136;SDS011;62977;45.636;11.750;2023-02-10T12:20:24;22.17;;;11.10;;
73136;SDS011;62977;45.636;11.750;2023-02-10T12:42:37;14.60;;;8.38;;
73136;SDS011;62977;45.636;11.750;2023-02-10T12:45:19;16.83;;;8.73;;
73136;SDS011;62977;45.636;11.750;2023-02-10T12:53:26;12.82;;;7.10;;
73136;SDS011;62977;45.636;11.750;2023-02-10T12:58:25;12.52;;;7.28;;
73136;SDS011;62977;45.636;11.750;2023-02-10T13:03:53;13.07;;;7.43;;
73136;SDS011;62977;45.636;11.750;2023-02-10T13:06:39;14.48;;;7.63;;
73136;SDS011;62977;45.636;11.750;2023-02-10T13:09:14;14.93;;;8.18;;
73136;SDS011;62977;45.636;11.750;2023-02-10T13:14:26;16.80;;;8.47;;
73136;SDS011;62977;45.636;11.750;2023-02-10T13:16:54;13.82;;;8.10;;
73136;SDS011;62977;45.636;11.750;2023-02-10T13:19:33;13.63;;;7.53;;
73136;SDS011;62977;45.636;11.750;2023-02-10T13:27:30;13.77;;;8.73;;
73136;SDS011;62977;45.636;11.750;2023-02-10T13:35:40;13.57;;;7.35;;
73136;SDS011;62977;45.636;11.750;2023-02-10T13:38:08;15.18;;;8.23;;
73136;SDS011;62977;45.636;11.750;2023-02-10T13:43:19;12.25;;;7.25;;
73136;SDS011;62977;45.636;11.750;2023-02-10T13:45:58;17.70;;;7.38;;
73136;SDS011;62977;45.636;11.750;2023-02-10T13:48:27;14.43;;;7.40;;
73136;SDS011;62977;45.636;11.750;2023-02-10T13:50:57;11.18;;;6.97;;
73136;SDS011;62977;45.636;11.750;2023-02-10T13:56:02;13.60;;;7.45;;
73136;SDS011;62977;45.636;11.750;2023-02-10T14:01:39;9.95;;;5.55;;
73136;SDS011;62977;45.636;11.750;2023-02-10T14:06:45;13.30;;;6.43;;
73136;SDS011;62977;45.636;11.750;2023-02-10T14:11:53;10.60;;;6.28;;
73136;SDS011;62977;45.636;11.750;2023-02-10T14:14:24;12.00;;;5.40;;
73136;SDS011;62977;45.636;11.750;2023-02-10T14:17:06;10.25;;;5.68;;
73136;SDS011;62977;45.636;11.750;2023-02-10T14:19:42;8.87;;;5.13;;
73136;SDS011;62977;45.636;11.750;2023-02-10T14:24:55;8.90;;;5.00;;
73136;SDS011;62977;45.636;11.750;2023-02-10T14:27:25;10.05;;;4.20;;
73136;SDS011;62977;45.636;11.750;2023-02-10T14:29:56;10.98;;;5.28;;
73136;SDS011;62977;45.636;11.750;2023-02-10T14:32:28;10.57;;;5.20;;
73136;SDS011;62977;45.636;11.750;2023-02-10T14:34:59;8.05;;;4.47;;
73136;SDS011;62977;45.636;11.750;2023-02-10T14:37:28;14.00;;;4.70;;
73136;SDS011;62977;45.636;11.750;2023-02-10T14:39:55;20.40;;;5.27;;
73136;SDS011;62977;45.636;11.750;2023-02-10T14:42:26;10.05;;;4.25;;
73136;SDS011;62977;45.636;11.750;2023-02-10T14:44:55;10.27;;;4.35;;
73136;SDS011;62977;45.636;11.750;2023-02-10T14:47:33;21.65;;;5.68;;
73136;SDS011;62977;45.636;11.750;2023-02-10T14:50:02;13.05;;;6.00;;
73136;SDS011;62977;45.636;11.750;2023-02-10T14:52:31;9.87;;;5.53;;
73136;SDS011;62977;45.636;11.750;2023-02-10T14:54:58;9.75;;;5.03;;
73136;SDS011;62977;45.636;11.750;2023-02-10T14:57:25;14.85;;;6.72;;
73136;SDS011;62977;45.636;11.750;2023-02-10T14:59:56;13.88;;;5.25;;
73136;SDS011;62977;45.636;11.750;2023-02-10T15:02:24;11.95;;;5.30;;
73136;SDS011;62977;45.636;11.750;2023-02-10T15:04:52;14.73;;;5.70;;
73136;SDS011;62977;45.636;11.750;2023-02-10T15:07:23;10.32;;;4.80;;
73136;SDS011;62977;45.636;11.750;2023-02-10T15:09:50;8.98;;;4.38;;
73136;SDS011;62977;45.636;11.750;2023-02-10T15:12:17;10.32;;;4.82;;
73136;SDS011;62977;45.636;11.750;2023-02-10T15:17:20;11.97;;;4.97;;
73136;SDS011;62977;45.636;11.750;2023-02-10T15:19:53;11.40;;;4.57;;
73136;SDS011;62977;45.636;11.750;2023-02-10T15:22:33;10.77;;;4.85;;
73136;SDS011;62977;45.636;11.750;2023-02-10T15:27:52;11.25;;;5.60;;
73136;SDS011;62977;45.636;11.750;2023-02-10T15:30:23;10.43;;;5.37;;
73136;SDS011;62977;45.636;11.750;2023-02-10T15:32:51;11.60;;;6.05;;
73136;SDS011;62977;45.636;11.750;2023-02-10T15:35:19;14.25;;;7.28;;
73136;SDS011;62977;45.636;11.750;2023-02-10T15:37:49;15.00;;;6.47;;
73136;SDS011;62977;45.636;11.750;2023-02-10T15:40:23;13.82;;;6.10;;
73136;SDS011;62977;45.636;11.750;2023-02-10T15:43:04;12.17;;;6.20;;
73136;SDS011;62977;45.636;11.750;2023-02-10T15:45:46;14.05;;;6.55;;
73136;SDS011;62977;45.636;11.750;2023-02-10T15:48:14;14.25;;;6.13;;
73136;SDS011;62977;45.636;11.750;2023-02-10T15:50:44;10.60;;;5.80;;
73136;SDS011;62977;45.636;11.750;2023-02-10T15:53:11;14.60;;;7.03;;
73136;SDS011;62977;45.636;11.750;2023-02-10T15:55:44;16.55;;;6.75;;
73136;SDS011;62977;45.636;11.750;2023-02-10T15:58:11;13.90;;;6.32;;
73136;SDS011;62977;45.636;11.750;2023-02-10T16:00:37;14.27;;;7.18;;
73136;SDS011;62977;45.636;11.750;2023-02-10T16:03:04;15.45;;;7.10;;
73136;SDS011;62977;45.636;11.750;2023-02-10T16:05:34;17.43;;;8.90;;
73136;SDS011;62977;45.636;11.750;2023-02-10T16:08:05;19.85;;;9.00;;
73136;SDS011;62977;45.636;11.750;2023-02-10T16:10:43;20.15;;;9.57;;
73136;SDS011;62977;45.636;11.750;2023-02-10T16:13:11;20.52;;;9.85;;
73136;SDS011;62977;45.636;11.750;2023-02-10T16:15:38;16.67;;;8.90;;
73136;SDS011;62977;45.636;11.750;2023-02-10T16:18:04;19.60;;;9.35;;
73136;SDS011;62977;45.636;11.750;2023-02-10T16:20:31;17.73;;;9.23;;
73136;SDS011;62977;45.636;11.750;2023-02-10T16:22:57;18.87;;;9.97;;
73136;SDS011;62977;45.636;11.750;2023-02-10T16:25:24;20.10;;;10.80;;
73136;SDS011;62977;45.636;11.750;2023-02-10T16:27:51;25.10;;;11.90;;
73136;SDS011;62977;45.636;11.750;2023-02-10T16:30:22;28.00;;;12.73;;
73136;SDS011;62977;45.636;11.750;2023-02-10T16:32:50;31.25;;;13.60;;
73136;SDS011;62977;45.636;11.750;2023-02-10T16:35:17;22.90;;;12.13;;
73136;SDS011;62977;45.636;11.750;2023-02-10T16:37:42;24.77;;;11.13;;
73136;SDS011;62977;45.636;11.750;2023-02-10T16:40:14;23.23;;;11.63;;
73136;SDS011;62977;45.636;11.750;2023-02-10T16:42:48;25.95;;;10.88;;
73136;SDS011;62977;45.636;11.750;2023-02-10T16:45:13;26.50;;;11.90;;
73136;SDS011;62977;45.636;11.750;2023-02-10T16:47:39;25.92;;;13.27;;
73136;SDS011;62977;45.636;11.750;2023-02-10T16:50:06;34.20;;;13.57;;
73136;SDS011;62977;45.636;11.750;2023-02-10T16:52:32;31.10;;;12.00;;
73136;SDS011;62977;45.636;11.750;2023-02-10T16:55:01;36.88;;;13.57;;
73136;SDS011;62977;45.636;11.750;2023-02-10T16:57:28;34.67;;;15.63;;